Terminal Aerodrome Forecast
Issued by NWS Cleveland, OH

Home | Current Version | Previous Version | Text Only | Print | Product List | Glossary Off
Versions: 1 2 3 4 5 6 7 8 9 10 11 12 13 14 15 16 17

520
FTUS41 KCLE 261739
TAFYNG
TAF
KYNG 261739Z 2618/2718 20012G20KT P6SM SCT040 BKN250
     FM262000 18007KT P6SM SCT045 BKN250
     FM270300 18006KT P6SM VCSH SCT050 BKN100
     FM270500 20007KT P6SM BKN070
     FM271000 20003KT 4SM BR SCT070
     FM271300 22006KT P6SM SCT050=

USA.gov is the U.S. government's official web portal to all federal, state and local government web resources and services.